createdAt,value
2023-11-12T00:03:37.441Z,2.06
2023-11-12T00:08:39.696Z,1.87
2023-11-12T00:13:42.956Z,1.96
2023-11-12T00:18:45.752Z,1.72
2023-11-12T00:23:48.787Z,1.69
2023-11-12T00:28:52.304Z,1.76
2023-11-12T00:33:55.144Z,1.78
2023-11-12T00:38:58.187Z,1.84
2023-11-12T00:44:00.944Z,1.97
2023-11-12T00:49:04.046Z,2.06
2023-11-12T00:54:07.329Z,2.22
2023-11-12T00:59:09.659Z,2.10
2023-11-12T01:04:12.660Z,2.06
2023-11-12T01:09:15.468Z,2.26
2023-11-12T01:14:18.346Z,2.43
2023-11-12T01:19:21.050Z,2.38
2023-11-12T01:24:23.385Z,2.39
2023-11-12T01:29:26.444Z,2.47
2023-11-12T01:34:29.134Z,2.35
2023-11-12T01:39:32.225Z,2.11
2023-11-12T01:44:34.501Z,2.24
2023-11-12T01:49:39.364Z,2.21
2023-11-12T01:54:42.908Z,1.91
2023-11-12T01:59:46.434Z,1.89
2023-11-12T02:04:50.483Z,1.55
2023-11-12T02:10:00.450Z,1.87
2023-11-12T02:15:04.565Z,2.02
2023-11-12T02:20:12.197Z,2.12
2023-11-12T02:25:15.242Z,2.17
2023-11-12T02:30:20.541Z,2.25
2023-11-12T02:35:23.287Z,2.07
2023-11-12T02:40:26.266Z,1.75
2023-11-12T02:45:29.322Z,2.15
2023-11-12T02:50:33.064Z,2.20
2023-11-12T02:55:36.844Z,1.78
2023-11-12T03:00:39.666Z,1.94
2023-11-12T03:05:42.495Z,1.84
2023-11-12T03:10:45.303Z,1.75
2023-11-12T03:15:48.182Z,1.74
2023-11-12T03:20:54.363Z,1.57
2023-11-12T03:25:58.696Z,1.51
2023-11-12T03:31:01.116Z,1.22
2023-11-12T03:36:05.618Z,1.39
2023-11-12T03:41:08.053Z,1.34
2023-11-12T03:46:11.225Z,1.52
2023-11-12T03:51:13.907Z,1.34
2023-11-12T03:56:16.518Z,1.39
2023-11-12T04:01:19.322Z,1.22
2023-11-12T04:06:21.928Z,1.08
2023-11-12T04:11:25.700Z,1.01
2023-11-12T04:16:28.352Z,0.95
2023-11-12T04:21:32.001Z,0.92
2023-11-12T04:26:34.855Z,0.74
2023-11-12T04:31:40.988Z,0.64
2023-11-12T04:36:45.680Z,0.70
2023-11-12T04:41:48.315Z,0.66
2023-11-12T04:46:51.063Z,0.56
2023-11-12T04:51:53.351Z,0.60
2023-11-12T04:56:56.305Z,0.57
2023-11-12T05:01:59.551Z,0.65
2023-11-12T05:07:02.288Z,0.68
2023-11-12T05:12:05.569Z,0.60
2023-11-12T05:17:08.096Z,0.73
2023-11-12T05:22:10.943Z,0.81
2023-11-12T05:27:13.761Z,0.90
2023-11-12T05:32:16.791Z,0.71
2023-11-12T05:37:19.437Z,0.74
2023-11-12T05:42:22.117Z,0.73
2023-11-12T05:47:25.298Z,0.91
2023-11-12T05:52:27.903Z,0.79
2023-11-12T05:57:30.658Z,0.95
2023-11-12T06:02:33.860Z,0.88
2023-11-12T06:07:36.830Z,1.19
2023-11-12T06:19:26.607Z,1.41
2023-11-12T06:24:29.595Z,1.46
2023-11-12T06:29:32.971Z,1.57
2023-11-12T06:34:36.443Z,1.92
2023-11-12T06:39:38.760Z,2.07
2023-11-12T06:44:41.764Z,2.74
2023-11-12T06:49:45.029Z,3.32
2023-11-12T06:54:47.943Z,3.99
2023-11-12T06:59:50.284Z,4.63
2023-11-12T07:04:52.990Z,5.26
2023-11-12T07:09:55.764Z,7.47
2023-11-12T07:14:58.644Z,8.30
2023-11-12T07:20:01.464Z,7.36
2023-11-12T07:25:05.364Z,7.84
2023-11-12T07:30:08.918Z,8.10
2023-11-12T07:35:14.520Z,8.13
2023-11-12T07:40:19.310Z,8.27
2023-11-12T07:45:25.741Z,8.00
2023-11-12T07:50:34.534Z,8.00
2023-11-12T07:55:36.856Z,8.15
2023-11-12T08:00:39.746Z,8.36
2023-11-12T08:05:42.484Z,8.39
2023-11-12T08:10:45.433Z,8.48
2023-11-12T08:15:48.232Z,8.79
2023-11-12T08:20:51.037Z,8.69
2023-11-12T08:25:54.690Z,9.16
2023-11-12T08:30:57.407Z,9.30
2023-11-12T08:35:59.723Z,9.41
2023-11-12T08:41:02.715Z,9.34
2023-11-12T08:46:05.512Z,9.80
2023-11-12T08:51:10.257Z,10.15
2023-11-12T08:56:13.831Z,10.80
2023-11-12T09:01:43.270Z,12.02
2023-11-12T09:06:45.694Z,13.24
2023-11-12T09:11:49.570Z,14.10
2023-11-12T09:16:52.274Z,14.85
2023-11-12T09:21:54.864Z,15.41
2023-11-12T09:26:57.783Z,15.80
2023-11-12T09:32:00.809Z,16.49
2023-11-12T09:37:05.609Z,17.38
2023-11-12T09:42:13.588Z,17.65
2023-11-12T09:47:33.945Z,16.91
2023-11-12T09:52:36.942Z,15.84
2023-11-12T09:57:40.181Z,15.29
2023-11-12T10:02:43.191Z,14.69
2023-11-12T10:07:46.293Z,14.85
2023-11-12T10:12:49.955Z,14.85
2023-11-12T10:17:59.527Z,14.29
2023-11-12T10:23:05.369Z,14.26
2023-11-12T10:28:10.472Z,13.84
2023-11-12T10:33:30.285Z,13.82
2023-11-12T10:38:53.693Z,13.52
2023-11-12T10:44:00.114Z,12.96
2023-11-12T10:49:05.486Z,12.82
2023-11-12T10:54:10.398Z,12.76
2023-11-12T10:59:16.364Z,12.72
2023-11-12T11:04:21.558Z,12.77
2023-11-12T11:09:25.061Z,12.67
2023-11-12T11:14:32.585Z,12.63
2023-11-12T11:19:44.678Z,12.78
2023-11-12T11:24:47.870Z,12.75
2023-11-12T11:30:10.964Z,12.59
2023-11-12T11:35:19.570Z,12.65
2023-11-12T11:40:32.866Z,12.92
2023-11-12T11:46:11.903Z,12.86
2023-11-12T11:51:40.329Z,13.02
2023-11-12T11:56:43.553Z,12.87
2023-11-12T12:01:49.718Z,12.67
2023-11-12T12:06:53.323Z,12.78
2023-11-12T12:12:07.241Z,12.73
2023-11-12T12:17:12.308Z,12.71
2023-11-12T12:22:32.782Z,12.68
2023-11-12T12:27:37.969Z,12.39
2023-11-12T12:32:40.857Z,12.20
2023-11-12T12:37:43.565Z,12.35
2023-11-12T12:42:46.510Z,12.34
2023-11-12T12:47:49.470Z,12.30
2023-11-12T12:52:53.283Z,12.39
2023-11-12T12:58:00.332Z,12.23
2023-11-12T13:03:04.107Z,11.80
2023-11-12T13:08:09.499Z,11.52
2023-11-12T13:13:13.287Z,11.62
2023-11-12T13:18:16.575Z,11.50
2023-11-12T13:23:23.861Z,11.57
2023-11-12T13:28:26.907Z,11.45
2023-11-12T13:33:29.703Z,11.31
2023-11-12T13:38:35.019Z,11.27
2023-11-12T13:43:39.030Z,11.45
2023-11-12T13:48:41.682Z,11.18
2023-11-12T13:53:44.410Z,11.41
2023-11-12T13:58:52.130Z,11.09
2023-11-12T14:03:54.566Z,11.17
2023-11-12T14:08:57.572Z,11.06
2023-11-12T14:14:00.242Z,10.41
2023-11-12T14:19:03.109Z,10.51
2023-11-12T14:24:07.421Z,10.21
2023-11-12T14:29:12.366Z,10.11
2023-11-12T14:34:16.428Z,10.15
2023-11-12T14:39:19.772Z,10.29
2023-11-12T14:44:22.597Z,10.22
2023-11-12T14:49:27.451Z,10.00
2023-11-12T14:54:30.722Z,9.65
2023-11-12T14:59:39.675Z,9.71
2023-11-12T15:04:42.412Z,9.48
2023-11-12T15:09:45.471Z,9.57
2023-11-12T15:14:48.691Z,9.44
2023-11-12T15:19:51.019Z,8.95
2023-11-12T15:24:54.025Z,8.88
2023-11-12T15:29:57.068Z,8.91
2023-11-12T15:34:59.669Z,9.08
2023-11-12T15:40:02.849Z,9.21
2023-11-12T15:45:07.408Z,8.77
2023-11-12T15:50:14.008Z,8.82
2023-11-12T15:55:17.242Z,9.01
2023-11-12T16:00:20.881Z,8.86
2023-11-12T16:05:23.284Z,8.79
2023-11-12T16:10:25.471Z,8.66
2023-11-12T16:15:31.116Z,8.47
2023-11-12T16:20:33.775Z,8.44
2023-11-12T16:25:36.070Z,8.38
2023-11-12T16:30:39.191Z,9.09
2023-11-12T16:35:41.886Z,8.95
2023-11-12T16:40:45.903Z,8.81
2023-11-12T16:45:48.309Z,8.53
2023-11-12T16:50:50.971Z,8.57
2023-11-12T16:55:55.529Z,8.38
2023-11-12T17:00:58.933Z,8.03
2023-11-12T17:06:01.554Z,7.75
2023-11-12T17:11:07.030Z,7.71
2023-11-12T17:16:09.894Z,7.45
2023-11-12T17:21:12.225Z,7.37
2023-11-12T17:26:15.249Z,7.55
2023-11-12T17:31:18.303Z,7.26
2023-11-12T17:36:20.668Z,7.25
2023-11-12T17:41:24.554Z,7.27
2023-11-12T17:46:27.561Z,7.42
2023-11-12T17:51:29.938Z,7.56
2023-11-12T17:56:32.706Z,7.65
2023-11-12T18:01:35.011Z,7.55
2023-11-12T18:06:39.211Z,7.25
2023-11-12T18:11:41.940Z,7.51
2023-11-12T18:16:48.781Z,7.52
2023-11-12T18:21:51.877Z,7.69
2023-11-12T18:26:56.916Z,7.69
2023-11-12T18:32:05.272Z,7.78
2023-11-12T18:37:10.753Z,7.64
2023-11-12T18:42:13.655Z,7.78
2023-11-12T18:47:15.854Z,7.63
2023-11-12T18:52:18.655Z,7.82
2023-11-12T18:57:21.423Z,7.63
2023-11-12T19:02:25.006Z,7.39
2023-11-12T19:07:28.292Z,7.52
2023-11-12T19:12:30.700Z,7.66
2023-11-12T19:17:33.593Z,7.81
2023-11-12T19:22:36.424Z,7.71
2023-11-12T19:27:41.424Z,7.76
2023-11-12T19:32:44.574Z,7.74
2023-11-12T19:37:47.870Z,7.55
2023-11-12T19:42:50.882Z,7.60
2023-11-12T19:47:55.566Z,7.61
2023-11-12T19:52:58.568Z,7.64
2023-11-12T19:58:02.150Z,7.80
2023-11-12T20:03:04.867Z,7.47
2023-11-12T20:08:07.656Z,7.55
2023-11-12T20:13:10.667Z,7.43
2023-11-12T20:18:13.043Z,7.09
2023-11-12T20:23:15.298Z,6.81
2023-11-12T20:28:17.675Z,6.84
2023-11-12T20:33:21.938Z,7.07
2023-11-12T20:38:25.651Z,7.27
2023-11-12T20:43:28.689Z,7.29
2023-11-12T20:48:31.497Z,7.32
2023-11-12T20:53:34.238Z,7.25
2023-11-12T20:58:37.210Z,7.46
2023-11-12T21:03:40.166Z,7.55
2023-11-12T21:08:42.903Z,7.07
2023-11-12T21:13:48.271Z,6.84
2023-11-12T21:18:52.419Z,7.03
2023-11-12T21:23:55.122Z,6.80
2023-11-12T21:28:58.983Z,6.81
2023-11-12T21:34:02.335Z,6.69
2023-11-12T21:39:10.395Z,6.80
2023-11-12T21:44:14.624Z,6.87
2023-11-12T21:49:17.349Z,6.75
2023-11-12T21:54:21.983Z,6.71
2023-11-12T21:59:24.765Z,6.92
2023-11-12T22:04:27.097Z,6.66
2023-11-12T22:09:29.361Z,6.84
2023-11-12T22:14:31.993Z,6.80
2023-11-12T22:19:34.774Z,6.63
2023-11-12T22:24:37.049Z,6.83
2023-11-12T22:29:39.233Z,6.89
2023-11-12T22:34:41.822Z,6.88
2023-11-12T22:39:44.822Z,6.94
2023-11-12T22:44:47.128Z,6.81
2023-11-12T22:49:50.157Z,6.85
2023-11-12T22:54:52.911Z,6.71
2023-11-12T22:59:55.635Z,6.68
2023-11-12T23:04:57.836Z,6.77
2023-11-12T23:10:08.504Z,6.63
2023-11-12T23:15:12.859Z,6.69
2023-11-12T23:20:15.681Z,6.45
2023-11-12T23:25:22.016Z,6.65
2023-11-12T23:30:25.089Z,6.71
2023-11-12T23:35:29.100Z,6.75
2023-11-12T23:40:32.242Z,6.69
2023-11-12T23:45:34.888Z,6.71
2023-11-12T23:50:56.465Z,6.68
2023-11-12T23:55:58.845Z,6.81
